Withernsea, United Kingdom
Current Conditions -  °F | °C
As of 7:50 AM on Sunday 21 Dec 2014 (Local Time) from EGXS Reporting Station
Overcast Overcast  
Wind Chill: 34°   Ceiling: 3100
Heat Index: 43°   Visibility: 6mi
Dew Point: 39°   Wind: 23mph
Humidity: 87%   Direction: 200°SSW
Pressure: 30.15"   Gusts: NA
Location:  53.73°N, 0.03°E
Report Text: EGXS 210750Z AUTO 20020KT 9999 // OVC031/// 06/04 Q1021
Loading
Personal Weather Stations






























Interactive Weather Map New forecast layout! Learn more

10-Day Weather Forecast

Advertisements
Track Severe Weather on mobile